TAF Text Data
IDs:
Format:
Raw Decoded Include METAR

Data at: 1346 UTC 17 Sep 2019

KANB 171133Z 1712/1812 00000KT P6SM SKC
  FM171700 33006KT P6SM FEW070
  FM180100 00000KT P6SM SKC